• Join FlightAware (Why Join?)
  • Login
  • US Flag 
02:50PM EST


 

Airport Tracker/Info


-or-


 

Live Flight TrackerFlight Track Log ✈ OPT332 ✈ 05-Nov-2013 ✈ KMCC - KMDW

Flight Track Log - Related Links

Times and Time Zones

All times are in EST time to prevent confusion due to time zone crossing. See the OPT332 flight status page for this flight to view local times or setup timezone preferences in your user account.

Time Position Orientation Groundspeed Altitude Reporting Facility
EST Latitude Longitude Course Direction KTS MPH feet Rate Location/Type
02:24PM 38.6500 -121.4000 180° South 157 181 1,500  Level Northern Cal TRACON
02:25PM 38.6000 -121.4000 180° South 213 245 2,600 1,740 Climbing Northern Cal TRACON
02:26PM 38.5844 -121.3597 116° Southeast 213 245 4,500 2,940 Climbing Oakland Center
02:27PM 38.5842 -121.2778 90° East 227 261 7,700 3,360 Climbing Oakland Center
02:28PM 38.5847 -121.1853 90° East 256 295 11,500 3,540 Climbing Oakland Center
02:29PM 38.5858 -121.0661 89° East 274 315 15,100 2,340 Climbing Oakland Center
02:34PM 38.5882 -120.4077 89° East 389 448 27,000 1,920 Climbing FlightAware ADS-B (KAHC)
02:35PM 38.5884 -120.2821 90° East 421 484 27,600 840 Climbing FlightAware ADS-B (KAHC)
02:36PM 38.5880 -120.0854 90° East 446 513 28,800 720 Climbing FlightAware ADS-B (KAHC)
02:37PM 38.5878 -120.0006 90° East 462 532 29,000 120 Climbing FlightAware ADS-B (KAHC)
02:38PM 38.5873 -119.8707 90° East 471 542 29,000  Level FlightAware ADS-B (KAHC)
02:39PM 38.5865 -119.7236 90° East 474 545 29,000  Level FlightAware ADS-B (KAHC)
02:39PM 38.5859 -119.6309 90° East 475 547 29,000 420 Level FlightAware ADS-B (KAHC)
02:40PM 38.5851 -119.4992 90° East 475 547 29,600 840 Climbing FlightAware ADS-B (KAHC)
02:41PM 38.5840 -119.3618 91° East 476 548 30,400 960 Climbing FlightAware ADS-B (KAHC)
02:41PM 38.5833 -119.2753 91° East 477 549 30,900 540 Climbing FlightAware ADS-B (KAHC)
02:42PM 38.5825 -119.1904 91° East 479 551 31,000 60 Climbing FlightAware ADS-B (KAHC)
02:42PM 38.5816 -119.1057 91° East 481 554 31,000 480 Level FlightAware ADS-B (KAHC)
02:43PM 38.5807 -119.0209 91° East 477 549 31,500 900 Climbing FlightAware ADS-B (KAHC)
02:43PM 38.5796 -118.9278 91° East 478 550 32,000 900 Climbing FlightAware ADS-B (KAHC)
02:44PM 38.5603 -118.8147 91° East 489 563 32,700 540 Climbing Oakland Center
02:45PM 38.5144 -118.6472 109° East 501 577 33,000 120 Climbing Oakland Center
02:46PM 38.4700 -118.4792 109° East 502 578 33,000  Level Oakland Center
02:47PM 38.4553 -118.3103 96° East 486 559 33,000  Level Oakland Center
02:48PM 38.4558 -118.1111 90° East 471 542 33,100 660 Climbing Oakland Center
02:49PM 38.4558 -117.9656 90° East 466 536 34,400 1,320 Climbing Oakland Center
02:50PM 38.4561 -117.8069 90° East 451 519 35,900 1,440 Climbing Oakland Center
02:51PM 38.4561 -117.6506 90° East 443 510 37,400 1,440 Climbing Oakland Center
02:52PM 38.4561 -117.5283 90° East 429 494 38,500 1,200 Climbing Salt Lake Center
02:53PM 38.4544 -117.3792 91° East 419 482 39,600 900 Climbing Salt Lake Center
02:54PM 38.4542 -117.2303 90° East 416 479 40,400 720 Climbing Salt Lake Center
02:55PM 38.4528 -117.0786 91° East 422 486 41,100 840 Climbing Salt Lake Center
02:56PM 38.4517 -116.9278 90° East 422 486 42,200 1,020 Climbing Salt Lake Center
02:57PM 38.4514 -116.7508 90° East 414 476 43,200 780 Climbing Salt Lake Center
02:58PM 38.4494 -116.6081 91° East 404 465 43,900 660 Climbing Salt Lake Center
02:59PM 38.4486 -116.4647 90° East 403 464 44,600 480 Climbing Salt Lake Center
03:00PM 38.4467 -116.3236 91° East 399 459 45,000 180 Climbing Salt Lake Center
03:01PM 38.4450 -116.1800 91° East 403 464 45,000  Level Salt Lake Center
03:02PM 38.4431 -116.0333 91° East 409 471 45,000  Level Salt Lake Center
03:03PM 38.4408 -115.8811 91° East 424 488 45,000  Level Salt Lake Center
03:04PM 38.4375 -115.7311 92° East 424 488 45,000  Level Salt Lake Center
03:05PM 38.4361 -115.5778 91° East 431 496 45,000  Level Salt Lake Center
03:11PM 38.4153 -114.6585 91° East 445 512 45,000  Level FlightAware ADS-B
03:12PM 38.4107 -114.4908 92° East 445 512 45,000  Level FlightAware ADS-B
03:13PM 38.4074 -114.3712 92° East 445 512 45,000  Level FlightAware ADS-B
03:14PM 38.4044 -114.2705 92° East 447 514 45,000  Level FlightAware ADS-B
03:14PM 38.4006 -114.1414 92° East 447 514 45,000  Level FlightAware ADS-B
03:15PM 38.3974 -114.0383 92° East 445 512 45,000  Level FlightAware ADS-B
03:16PM 38.3920 -113.8762 92° East 446 513 45,000  Level FlightAware ADS-B
03:17PM 38.3893 -113.7938 92° East 446 513 45,000  Level FlightAware ADS-B
03:18PM 38.3847 -113.6625 92° East 446 513 45,000  Level FlightAware ADS-B
03:18PM 38.3810 -113.5557 93° East 447 514 45,000  Level FlightAware ADS-B
03:19PM 38.3740 -113.3640 93° East 446 513 45,000  Level FlightAware ADS-B
03:20PM 38.3709 -113.2804 93° East 445 512 45,000  Level FlightAware ADS-B
03:20PM 38.3677 -113.1975 93° East 444 511 45,000  Level FlightAware ADS-B
03:21PM 38.3639 -113.1014 93° East 445 512 45,000  Level FlightAware ADS-B (KBTF)
03:22PM 38.3607 -113.0120 93° East 443 510 45,000  Level FlightAware ADS-B
03:22PM 38.3608 -112.9996 89° East 443 510 45,000  Level FlightAware ADS-B
03:22PM 38.3610 -112.9880 89° East 442 509 45,000  Level FlightAware ADS-B
03:22PM 38.3640 -112.9110 87° East 441 507 45,000  Level FlightAware ADS-B (KBTF)
03:22PM 38.3641 -112.9090 86° East 441 507 45,000  Level FlightAware ADS-B
03:23PM 38.3666 -112.8310 88° East 440 506 45,000  Level FlightAware ADS-B
03:23PM 38.3677 -112.7952 88° East 440 506 45,000  Level FlightAware ADS-B (KBTF)
03:23PM 38.3691 -112.7520 88° East 440 506 45,000  Level FlightAware ADS-B
03:24PM 38.3699 -112.7264 88° East 440 506 45,000  Level FlightAware ADS-B
03:24PM 38.3719 -112.6600 88° East 440 506 45,000  Level FlightAware ADS-B
03:24PM 38.3737 -112.6024 88° East 440 506 45,000  Level FlightAware ADS-B (KBTF)
03:24PM 38.3746 -112.5740 88° East 440 506 45,000  Level FlightAware ADS-B
03:25PM 38.3763 -112.5194 88° East 439 505 45,000  Level FlightAware ADS-B (KBTF)
03:25PM 38.3770 -112.4940 88° East 439 505 45,000  Level FlightAware ADS-B
03:25PM 38.3793 -112.4171 88° East 439 505 45,000  Level FlightAware ADS-B (KBTF)
03:26PM 38.3802 -112.3860 88° East 439 505 45,000  Level FlightAware ADS-B
03:26PM 38.3783 -112.4502 268° West 401 461 45,000  Level FlightAware ADS-B (KMTJ)
03:26PM 38.3814 -112.3421 88° East 438 504 45,000  Level FlightAware ADS-B (KBTF)
03:26PM 38.3824 -112.3090 88° East 438 504 45,000  Level FlightAware ADS-B
03:27PM 38.3846 -112.2300 88° East 438 504 45,000  Level FlightAware ADS-B
03:27PM 38.3853 -112.2038 88° East 437 503 45,000  Level FlightAware ADS-B (KBTF)
03:27PM 38.3867 -112.1510 88° East 437 503 45,000  Level FlightAware ADS-B
03:27PM 38.3879 -112.1069 88° East 437 503 45,000  Level FlightAware ADS-B (KBTF)
03:28PM 38.3889 -112.0700 88° East 437 503 45,000  Level FlightAware ADS-B
03:28PM 38.3901 -112.0264 88° East 437 503 45,000  Level FlightAware ADS-B (KBTF)
03:28PM 38.3914 -111.9720 88° East 437 503 45,000  Level FlightAware ADS-B
03:29PM 38.3922 -111.9421 88° East 436 502 45,000  Level FlightAware ADS-B (KBTF)
03:29PM 38.3935 -111.8880 88° East 437 503 45,000  Level FlightAware ADS-B
03:29PM 38.3945 -111.8490 88° East 436 502 45,000  Level FlightAware ADS-B (KBTF)
03:29PM 38.3955 -111.8060 88° East 436 502 45,000  Level FlightAware ADS-B
03:30PM 38.3969 -111.7530 88° East 436 502 45,000  Level FlightAware ADS-B (KBTF)
03:30PM 38.3986 -111.6750 88° East 436 502 45,000  Level FlightAware ADS-B
03:31PM 38.3992 -111.6493 88° East 436 502 45,000  Level FlightAware ADS-B
03:31PM 38.4003 -111.5970 88° East 437 503 45,000  Level FlightAware ADS-B
03:31PM 38.4013 -111.5550 88° East 438 504 45,000  Level FlightAware ADS-B
03:31PM 38.4024 -111.5060 88° East 436 502 45,000  Level FlightAware ADS-B
03:32PM 38.4031 -111.4733 88° East 436 502 45,000  Level FlightAware ADS-B
03:32PM 38.4040 -111.4270 89° East 437 503 45,000  Level FlightAware ADS-B
03:32PM 38.4047 -111.3964 88° East 438 504 45,000  Level FlightAware ADS-B
03:32PM 38.4056 -111.3470 89° East 439 505 45,000  Level FlightAware ADS-B
03:33PM 38.4063 -111.3163 88° East 439 505 45,000  Level FlightAware ADS-B
03:33PM 38.4072 -111.2680 89° East 440 506 45,000  Level FlightAware ADS-B
03:33PM 38.4077 -111.2411 89° East 440 506 45,000  Level FlightAware ADS-B
03:33PM 38.4089 -111.1820 89° East 440 506 45,000  Level FlightAware ADS-B
03:34PM 38.4099 -111.1260 89° East 442 509 45,000  Level FlightAware ADS-B
03:34PM 38.4103 -111.1010 89° East 442 509 45,000  Level FlightAware ADS-B
03:34PM 38.4113 -111.0464 89° East 443 510 45,000  Level FlightAware ADS-B
03:35PM 38.4117 -111.0220 89° East 443 510 45,000  Level FlightAware ADS-B
03:35PM 38.4127 -110.9647 89° East 442 509 45,000  Level FlightAware ADS-B
03:35PM 38.4140 -110.8851 89° East 441 507 45,000  Level FlightAware ADS-B
03:36PM 38.4142 -110.8680 89° East 441 507 45,000  Level FlightAware ADS-B
03:36PM 38.4152 -110.8053 89° East 442 509 45,000  Level FlightAware ADS-B
03:36PM 38.4165 -110.7227 89° East 442 509 45,000  Level FlightAware ADS-B (KMTJ)
03:37PM 38.4178 -110.6444 89° East 442 509 45,000  Level FlightAware ADS-B
03:38PM 38.4202 -110.5515 88° East 442 509 45,000  Level FlightAware ADS-B (KMTJ)
03:38PM 38.4223 -110.4717 88° East 442 509 45,000  Level FlightAware ADS-B (KMTJ)
03:39PM 38.4241 -110.3938 88° East 442 509 45,000  Level FlightAware ADS-B
03:39PM 38.4261 -110.3051 88° East 442 509 45,000  Level FlightAware ADS-B
03:39PM 38.4265 -110.2902 88° East 441 507 45,000  Level FlightAware ADS-B (KMTJ)
03:40PM 38.4290 -110.1677 88° East 440 506 45,000  Level FlightAware ADS-B
03:41PM 38.4306 -110.0900 89° East 440 506 45,000  Level FlightAware ADS-B
03:41PM 38.4325 -109.9946 89° East 439 505 45,000  Level FlightAware ADS-B
03:42PM 38.4339 -109.9172 89° East 436 502 45,000  Level FlightAware ADS-B
03:42PM 38.4356 -109.8275 89° East 439 505 45,000  Level FlightAware ADS-B
03:43PM 38.4370 -109.7452 89° East 441 507 45,000  Level FlightAware ADS-B
03:43PM 38.4385 -109.6596 89° East 439 505 45,000  Level FlightAware ADS-B (KMTJ)
03:44PM 38.4397 -109.5787 89° East 441 507 45,000  Level FlightAware ADS-B
03:44PM 38.4410 -109.4987 89° East 442 509 45,000  Level FlightAware ADS-B
03:45PM 38.4421 -109.4182 89° East 442 509 45,000  Level FlightAware ADS-B
03:45PM 38.4432 -109.3393 89° East 445 512 45,000  Level FlightAware ADS-B
03:46PM 38.4443 -109.2527 89° East 446 513 45,000  Level FlightAware ADS-B
03:46PM 38.4454 -109.1708 89° East 446 513 45,000  Level FlightAware ADS-B
03:47PM 38.4464 -109.0844 89° East 446 513 45,000  Level FlightAware ADS-B
03:47PM 38.4473 -109.0049 89° East 448 516 45,000  Level FlightAware ADS-B
03:48PM 38.4482 -108.9178 89° East 448 516 45,000  Level FlightAware ADS-B
03:49PM 38.4491 -108.8231 89° East 450 518 45,000  Level FlightAware ADS-B
03:49PM 38.4498 -108.7439 89° East 450 518 45,000  Level FlightAware ADS-B
03:50PM 38.4505 -108.6562 89° East 451 519 45,000  Level FlightAware ADS-B
03:50PM 38.4511 -108.5824 89° East 452 520 45,000  Level FlightAware ADS-B
03:51PM 38.4516 -108.5001 90° East 452 520 45,000  Level FlightAware ADS-B
03:51PM 38.4522 -108.4131 90° East 453 521 45,000  Level FlightAware ADS-B (KMTJ)
03:52PM 38.4527 -108.3288 90° East 454 522 45,000  Level FlightAware ADS-B (KMTJ)
03:52PM 38.4541 -108.2244 89° East 455 524 45,000  Level FlightAware ADS-B
03:53PM 38.4666 -108.1532 77° East 456 525 45,000  Level FlightAware ADS-B
03:53PM 38.4864 -108.0639 74° East 457 526 45,000  Level FlightAware ADS-B
03:54PM 38.5059 -107.9721 75° East 456 525 45,000  Level FlightAware ADS-B
03:55PM 38.5243 -107.8859 75° East 457 526 45,000  Level FlightAware ADS-B
03:55PM 38.5489 -107.7705 75° East 458 527 45,000  Level FlightAware ADS-B
03:56PM 38.5696 -107.6734 75° East 460 529 45,000  Level FlightAware ADS-B
03:56PM 38.5860 -107.5959 75° East 460 529 45,000  Level FlightAware ADS-B
03:57PM 38.6054 -107.5042 75° East 461 531 45,000  Level FlightAware ADS-B (KANK)
03:58PM 38.6269 -107.4020 75° East 461 531 45,000  Level FlightAware ADS-B (KMTJ)
03:58PM 38.6269 -107.4020 75° East 462 532 45,000  Level FlightAware ADS-B (KMTJ)
03:59PM 38.6681 -107.2054 75° East 463 533 45,000  Level FlightAware ADS-B
04:00PM 38.6905 -107.0975 75° East 463 533 45,000  Level FlightAware ADS-B (KANK)
04:00PM 38.7080 -107.0125 75° East 464 534 45,000  Level FlightAware ADS-B
04:01PM 38.7292 -106.9093 75° East 465 535 45,000  Level FlightAware ADS-B (KANK)
04:01PM 38.7286 -106.9120 255° West 465 535 45,000  Level FlightAware ADS-B (KMTJ)
04:01PM 38.7531 -106.7927 75° East 466 536 45,000  Level FlightAware ADS-B (KANK)
04:02PM 38.7701 -106.7090 75° East 468 539 45,000  Level FlightAware ADS-B (KANK)
04:03PM 38.7897 -106.6117 75° East 470 541 45,000  Level FlightAware ADS-B
04:03PM 38.8103 -106.5097 75° East 473 544 45,000  Level FlightAware ADS-B (KANK)
04:04PM 38.8273 -106.4254 75° East 472 543 45,000  Level FlightAware ADS-B
04:04PM 38.8435 -106.3445 76° East 473 544 45,000  Level FlightAware ADS-B (KANK)
04:05PM 38.8602 -106.2604 76° East 473 544 45,000  Level FlightAware ADS-B (KANK)
04:05PM 38.8781 -106.1703 76° East 473 544 45,000  Level FlightAware ADS-B
04:06PM 38.8942 -106.0888 76° East 470 541 45,000  Level FlightAware ADS-B
04:06PM 38.9112 -106.0027 76° East 471 542 45,000  Level FlightAware ADS-B
04:07PM 38.9297 -105.9080 76° East 474 545 45,000  Level FlightAware ADS-B
04:07PM 38.9463 -105.8232 76° East 473 544 45,000  Level FlightAware ADS-B
04:08PM 38.9621 -105.7413 76° East 477 549 45,000  Level FlightAware ADS-B
04:08PM 38.9786 -105.6562 76° East 475 547 45,000  Level FlightAware ADS-B
04:09PM 38.9942 -105.5751 76° East 478 550 45,000  Level FlightAware ADS-B (KANK)
04:09PM 39.0100 -105.4927 76° East 475 547 45,000  Level FlightAware ADS-B (KANK)
04:10PM 39.0301 -105.3873 76° East 479 551 45,000  Level FlightAware ADS-B (KANK)
04:11PM 39.0458 -105.3047 76° East 480 552 45,000  Level FlightAware ADS-B (KANK)
04:11PM 39.0720 -105.1662 76° East 482 555 45,000  Level FlightAware ADS-B (KANK)
04:12PM 39.0890 -105.0757 76° East 484 557 45,000  Level FlightAware ADS-B (KANK)
04:13PM 39.1108 -104.9587 76° East 485 558 45,000  Level FlightAware ADS-B (KANK)
04:13PM 39.1285 -104.8637 76° East 481 554 45,000  Level FlightAware ADS-B (KANK)
04:14PM 39.1642 -104.6706 77° East 481 554 45,000  Level FlightAware ADS-B (KANK)
04:15PM 39.1799 -104.5847 77° East 485 558 45,000  Level FlightAware ADS-B (KANK)
04:15PM 39.1913 -104.5222 77° East 483 556 45,000  Level FlightAware ADS-B (KANK)
04:17PM 39.2359 -104.2753 77° East 484 557 45,000  Level FlightAware ADS-B (KANK)
04:21PM 39.3531 -103.6118 77° East 484 557 45,000  Level FlightAware ADS-B (KANK)
04:21PM 39.3744 -103.4917 77° East 483 556 45,000  Level Denver Center
04:22PM 39.4031 -103.3233 78° East 483 556 45,000  Level Denver Center
04:23PM 39.4311 -103.1539 78° East 483 556 45,000  Level Denver Center
04:25PM 39.4589 -102.9839 78° East 485 558 45,000  Level Denver Center
04:26PM 39.4878 -102.8142 78° East 486 559 45,000  Level Denver Center
04:27PM 39.5167 -102.6442 78° East 485 558 45,000  Level Denver Center
04:28PM 39.5492 -102.4397 78° East 484 557 45,000  Level Denver Center
04:29PM 39.5797 -102.2636 77° East 484 557 45,000  Level Denver Center
04:30PM 39.6056 -102.1003 78° East 484 557 45,000  Level Denver Center
04:31PM 39.6347 -101.9078 79° East 487 560 45,000  Level Denver Center
04:32PM 39.6603 -101.7439 78° East 485 558 45,000  Level Denver Center
04:33PM 39.6856 -101.5786 79° East 488 562 45,000  Level Denver Center
04:34PM 39.7156 -101.3872 78° East 486 559 45,000  Level Denver Center
04:35PM 39.7411 -101.2211 79° East 490 564 45,000  Level Denver Center
04:36PM 39.7703 -101.0278 79° East 490 564 45,000  Level Denver Center
04:37PM 39.7947 -100.8603 79° East 493 567 45,000  Level Denver Center
04:38PM 39.8228 -100.6656 79° East 493 567 45,000  Level Denver Center
04:39PM 39.8475 -100.4983 79° East 494 568 45,000  Level Denver Center
04:40PM 39.8767 -100.3003 79° East 499 574 45,000  Level Denver Center
04:41PM 39.8986 -100.1417 80° East 497 572 45,000  Level Denver Center
04:42PM 39.9239 -99.9636 79° East 499 574 45,000  Level Denver Center
04:43PM 39.9489 -99.7847 80° East 503 579 45,000  Level Denver Center
04:44PM 39.9786 -99.5700 80° East 502 578 45,000  Level Denver Center
04:45PM 40.0019 -99.3900 80° East 505 581 45,000  Level Denver Center
04:46PM 40.0261 -99.2103 80° East 504 580 45,000  Level Denver Center
04:52PM 40.1575 -98.1836 80° East 512 589 45,000  Level FlightAware ADS-B
04:53PM 40.1820 -97.9831 81° East 511 588 45,000  Level FlightAware ADS-B
04:54PM 40.2003 -97.8294 81° East 510 587 45,000  Level Minneapolis Center
04:55PM 40.2264 -97.6086 81° East 513 590 45,000  Level Minneapolis Center
04:56PM 40.2475 -97.4233 81° East 514 592 45,000  Level Minneapolis Center
04:57PM 40.2675 -97.2558 81° East 516 594 45,000  Level Minneapolis Center
05:03PM 40.3914 -96.1296 81° East 518 596 45,000  Level FlightAware ADS-B
05:04PM 40.4197 -95.8566 82° East 519 597 45,000  Level FlightAware ADS-B
05:06PM 40.4536 -95.5189 82° East 517 595 45,000  Level FlightAware ADS-B
05:10PM 40.5317 -94.7021 83° East 518 596 45,000  Level FlightAware ADS-B
05:12PM 40.5526 -94.4719 83° East 516 594 45,000  Level FlightAware ADS-B
05:15PM 40.6029 -93.9125 83° East 523 602 45,000  Level FlightAware ADS-B
05:16PM 40.6478 -93.6208 78° East 523 602 45,000  Level FlightAware ADS-B
05:18PM 40.6899 -93.3285 79° East 526 605 45,000 -720 Level FlightAware ADS-B
05:19PM 40.7290 -93.0524 79° East 535 616 43,000 -1,440 Descending FlightAware ADS-B
05:21PM 40.7677 -92.7729 80° East 555 639 41,000 -1,380 Descending FlightAware ADS-B
05:21PM 40.7702 -92.7552 80° East 556 640 41,000  Level FlightAware ADS-B (LPVM)
05:21PM 40.7902 -92.6094 80° East 556 640 41,000  Level FlightAware ADS-B (LPVM)
05:22PM 40.8067 -92.4881 80° East 558 642 41,000  Level FlightAware ADS-B (LPVM)
05:23PM 40.8286 -92.3249 80° East 560 644 41,000  Level FlightAware ADS-B (LPVM)
05:24PM 40.8462 -92.1930 80° East 559 643 41,000 -480 Level FlightAware ADS-B (LPVM)
05:25PM 40.8708 -92.0050 80° East 566 651 40,300 -1,200 Descending FlightAware ADS-B (LPVM)
05:25PM 40.8961 -91.8103 80° East 573 659 38,800 -1,560 Descending FlightAware ADS-B (LPVM)
05:26PM 40.9128 -91.6801 80° East 575 662 37,900 -1,560 Descending FlightAware ADS-B (LPVM)
05:27PM 40.9303 -91.5425 80° East 572 658 36,700 -2,460 Descending Chicago Center
05:28PM 40.9725 -91.3458 74° East 568 654 33,700 -2,760 Descending Chicago Center
05:29PM 41.0467 -91.1917 57° Northeast 557 641 31,000 -3,060 Descending Chicago Center
05:30PM 41.1381 -90.9997 58° Northeast 510 587 27,400 -2,460 Descending Chicago Center
05:31PM 41.2092 -90.8558 57° Northeast 470 541 26,000 -1,140 Descending Chicago Center
05:32PM 41.2486 -90.7056 71° East 440 506 25,100 -1,200 Descending Chicago Center
05:33PM 41.2328 -90.5511 98° East 423 487 23,600 -1,500 Descending Chicago Center
05:34PM 41.2231 -90.3978 95° East 417 480 22,100 -780 Descending Chicago Center
05:35PM 41.2122 -90.2561 96° East 391 450 22,000 -600 Descending Chicago Center
05:36PM 41.2006 -90.1067 96° East 400 460 20,900 -1,800 Descending Chicago Center
05:37PM 41.1867 -89.9283 96° East 403 464 18,300 -2,100 Descending Chicago Center
05:38PM 41.1767 -89.7850 95° East 395 455 16,600 -1,620 Descending Chicago Center
05:39PM 41.1656 -89.6489 96° East 379 436 15,000 -1,440 Descending Chicago Center
05:40PM 41.1636 -89.5258 91° East 344 396 13,600 -1,440 Descending Chicago Center
05:41PM 41.1728 -89.4014 84° East 337 388 12,100 -1,500 Descending Chicago Center
05:42PM 41.1806 -89.2831 85° East 326 375 10,600 -1,020 Descending Chicago Center
05:43PM 41.1900 -89.1497 85° East 316 364 10,000 -300 Descending Chicago Center
05:44PM 41.1975 -89.0350 85° East 314 361 10,000 -720 Level Chicago Center
05:45PM 41.2039 -88.9236 86° East 308 354 8,600 -1,440 Descending Chicago Center
05:46PM 41.2111 -88.8139 85° East 302 348 7,100 -1,260 Descending Chicago Center
05:47PM 41.2186 -88.6861 85° East 294 338 6,000 -540 Descending Chicago Center
05:49PM 41.2697 -88.6078 49° Northeast 298 343 6,000  Level Chicago Center
05:50PM 41.3364 -88.5364 39° Northeast 305 351 6,000  Level Chicago Center
05:51PM 41.4039 -88.4664 38° Northeast 307 353 6,000 -60 Level Chicago Center
05:52PM 41.4689 -88.3936 40° Northeast 304 350 5,900 -540 Descending Chicago Center
05:53PM 41.5061 -88.2961 63° Northeast 292 336 5,000 -480 Descending Chicago Center
05:54PM 41.5214 -88.2011 78° East 261 300 5,000  Level Chicago Center
05:55PM 41.5369 -88.0911 79° East 251 289 5,000  Level Chicago Center
05:56PM 41.5503 -87.9994 79° East 248 285 5,000  Level Chicago Center
05:57PM 41.5619 -87.9075 80° East 249 287 5,000  Level Chicago Center
05:58PM 41.5731 -87.8314 79° East 224 258 5,000  Level Chicago Center
05:59PM 41.5847 -87.7564 78° East 211 243 5,000  Level Chicago Center
06:00PM 41.5861 -87.6847 88° East 201 231 5,000 -540 Level Chicago Center
06:01PM 41.5714 -87.6158 106° East 196 226 4,000 -540 Descending Chicago Center
06:02PM 41.5453 -87.5431 116° Southeast 193 222 4,000 -180 Level Chicago Center
06:03PM 41.5903 -87.5117 28° Northeast 207 238 3,700 -480 Descending Chicago Center
06:04PM 41.6381 -87.5450 332° Northwest 203 234 3,000 -360 Descending Chicago Center
06:05PM 41.6747 -87.5956 314° West 195 224 3,000 -180 Level Chicago Center
06:06PM 41.7089 -87.6467 312° West 190 219 2,700 -720 Descending Chicago Center
06:07PM 41.7475 -87.7006 314° West 180 207 1,600 -720 Descending Chicago Center
06:08PM 41.7836 -87.7139 345° North 168 193 1,300 -180 Descending Chicago Center
06:09PM 41.8169 -87.7153 358° North 161 185 1,300 -60 Level Chicago Center
06:10PM 41.7958 -87.7375 218° Southwest 149 171 1,200 -120 Descending Chicago Center